aviador You're here:

KHBI Decoded Metar

ASHEBORO MUNI in NC, USA
Report Time2017-08-24 00:55:00
UTC Time2017-08-24 01:06:51
Flight Rules vfr VFR
WindCalm
Visibility9999 m
Phenomena:N/A
Clouds:Scattered 090 Hf
Expected CloudBase > 400 ft AGL from Temp-Dew spread
CeilingNone
Temp25°C (ISA +11)
Dew Point24°C (94% RH)
QNH1012 hPa
Density Alt2,415 ft
Elevation673 ft
Report Wrong Elevation
Raw Report
KHBI 240055Z AUTO 00000KT 10SM SCT090 25/24 A2987 RMK AO2
T02520241=

Extra information for KHBI:More info

Metar Taf Metar & Taf Last 4 Metars F.Rules Stats Wind Profile Meteogram Temp Stats Airport Information Weather charts Add Link Nearby VenuesMetar ALERT Operation Metar Decoded Social comments

AIRNAV info for KHBI